createdAt,value
2023-01-30T00:00:51.139Z,3.62
2023-01-30T00:03:53.889Z,3.68
2023-01-30T00:06:56.480Z,3.63
2023-01-30T00:10:00.425Z,3.72
2023-01-30T00:13:02.973Z,3.77
2023-01-30T00:16:06.378Z,3.68
2023-01-30T00:19:09.052Z,3.85
2023-01-30T00:22:11.630Z,3.74
2023-01-30T00:25:15.847Z,3.78
2023-01-30T00:28:18.617Z,3.74
2023-01-30T00:31:21.248Z,3.83
2023-01-30T00:34:23.820Z,3.82
2023-01-30T00:37:26.709Z,3.89
2023-01-30T00:40:30.908Z,3.94
2023-01-30T00:43:51.032Z,3.95
2023-01-30T00:47:09.115Z,3.86
2023-01-30T00:50:12.383Z,3.89
2023-01-30T00:53:16.759Z,3.96
2023-01-30T00:56:20.720Z,4.12
2023-01-30T00:59:23.401Z,4.00
2023-01-30T01:02:25.999Z,4.01
2023-01-30T01:05:29.646Z,4.05
2023-01-30T01:08:32.288Z,4.25
2023-01-30T01:11:36.666Z,4.10
2023-01-30T01:14:39.270Z,4.17
2023-01-30T01:17:42.911Z,4.21
2023-01-30T01:20:45.566Z,4.20
2023-01-30T01:23:51.181Z,4.22
2023-01-30T01:26:55.111Z,4.34
2023-01-30T01:29:57.731Z,4.39
2023-01-30T01:33:00.321Z,4.47
2023-01-30T01:36:04.658Z,4.48
2023-01-30T01:39:07.420Z,4.45
2023-01-30T01:42:11.463Z,4.61
2023-01-30T01:45:20.458Z,4.54
2023-01-30T01:48:28.757Z,4.68
2023-01-30T01:51:35.765Z,4.62
2023-01-30T01:54:43.209Z,4.66
2023-01-30T01:57:51.697Z,4.74
2023-01-30T02:00:57.862Z,4.69
2023-01-30T02:04:05.356Z,4.76
2023-01-30T02:07:09.636Z,4.88
2023-01-30T02:10:18.683Z,4.80
2023-01-30T02:13:22.883Z,4.64
2023-01-30T02:16:25.512Z,4.71
2023-01-30T02:19:40.263Z,4.85
2023-01-30T02:23:18.328Z,4.82
2023-01-30T02:27:00.440Z,4.80
2023-01-30T02:30:42.378Z,4.77
2023-01-30T02:33:52.998Z,4.81
2023-01-30T02:37:03.604Z,4.84
2023-01-30T02:40:18.979Z,4.85
2023-01-30T02:43:29.435Z,4.81
2023-01-30T02:46:41.837Z,4.92
2023-01-30T02:49:50.730Z,4.93
2023-01-30T02:52:54.523Z,4.84
2023-01-30T02:55:57.604Z,4.87
2023-01-30T02:59:06.045Z,4.90
2023-01-30T03:02:45.669Z,4.95
2023-01-30T03:06:02.147Z,5.02
2023-01-30T03:09:17.338Z,4.99
2023-01-30T03:12:29.104Z,5.01
2023-01-30T03:15:36.671Z,5.04
2023-01-30T03:18:42.793Z,5.09
2023-01-30T03:21:47.088Z,5.07
2023-01-30T03:24:51.005Z,5.15
2023-01-30T03:27:56.010Z,5.23
2023-01-30T03:30:58.727Z,5.23
2023-01-30T03:34:02.794Z,5.28
2023-01-30T03:37:05.687Z,5.28
2023-01-30T03:40:09.814Z,5.37
2023-01-30T03:43:12.463Z,5.29
2023-01-30T03:46:15.157Z,5.35
2023-01-30T03:49:19.125Z,5.41
2023-01-30T03:52:21.701Z,5.48
2023-01-30T03:55:24.299Z,5.42
2023-01-30T03:58:26.935Z,5.50
2023-01-30T04:01:29.544Z,5.56
2023-01-30T04:04:33.489Z,5.51
2023-01-30T04:07:36.103Z,5.54
2023-01-30T04:10:38.688Z,5.53
2023-01-30T04:13:41.482Z,5.69
2023-01-30T04:16:44.208Z,5.65
2023-01-30T04:19:48.197Z,5.70
2023-01-30T04:22:50.769Z,5.77
2023-01-30T04:25:53.345Z,5.60
2023-01-30T04:28:56.073Z,5.64
2023-01-30T04:31:58.678Z,5.65
2023-01-30T04:35:02.671Z,5.70
2023-01-30T04:38:05.259Z,5.71
2023-01-30T04:41:07.920Z,5.77
2023-01-30T04:44:10.584Z,5.75
2023-01-30T04:47:13.232Z,5.80
2023-01-30T04:50:17.430Z,5.77
2023-01-30T04:53:21.042Z,5.82
2023-01-30T04:56:23.629Z,5.90
2023-01-30T04:59:26.360Z,5.94
2023-01-30T05:02:28.928Z,5.90
2023-01-30T05:05:34.101Z,5.97
2023-01-30T05:08:36.675Z,5.99
2023-01-30T05:11:39.443Z,5.95
2023-01-30T05:14:42.031Z,5.91
2023-01-30T05:17:44.897Z,5.97
2023-01-30T05:20:48.843Z,5.91
2023-01-30T05:23:52.449Z,5.87
2023-01-30T05:26:55.040Z,5.85
2023-01-30T05:29:57.609Z,5.93
2023-01-30T05:33:00.228Z,5.98
2023-01-30T05:36:04.345Z,5.79
2023-01-30T05:39:07.029Z,5.87
2023-01-30T05:42:09.802Z,5.83
2023-01-30T05:45:12.631Z,5.75
2023-01-30T05:48:15.209Z,5.68
2023-01-30T05:51:21.365Z,5.85
2023-01-30T05:54:24.092Z,5.75
2023-01-30T05:57:26.795Z,5.69
2023-01-30T06:00:29.578Z,5.66
2023-01-30T06:03:32.443Z,5.59
2023-01-30T06:06:36.802Z,5.53
2023-01-30T06:09:39.383Z,5.44
2023-01-30T06:12:41.971Z,5.52
2023-01-30T06:15:44.604Z,5.36
2023-01-30T06:18:47.916Z,5.42
2023-01-30T06:21:51.851Z,5.40
2023-01-30T06:24:54.470Z,5.40
2023-01-30T06:27:57.046Z,5.31
2023-01-30T06:30:59.904Z,5.27
2023-01-30T06:34:02.589Z,5.37
2023-01-30T06:37:06.518Z,5.38
2023-01-30T06:40:10.746Z,5.43
2023-01-30T06:43:13.398Z,5.36
2023-01-30T06:46:15.987Z,5.26
2023-01-30T06:49:18.610Z,5.19
2023-01-30T06:52:22.563Z,5.26
2023-01-30T06:55:28.352Z,5.12
2023-01-30T06:58:30.948Z,5.07
2023-01-30T07:01:33.612Z,5.13
2023-01-30T07:04:36.242Z,5.08
2023-01-30T07:07:40.289Z,5.16
2023-01-30T07:10:43.944Z,5.14
2023-01-30T07:13:46.523Z,5.14
2023-01-30T07:16:49.167Z,5.25
2023-01-30T07:19:51.989Z,5.06
2023-01-30T07:22:57.119Z,5.17
2023-01-30T07:25:59.728Z,5.11
2023-01-30T07:29:02.327Z,5.01
2023-01-30T07:32:06.118Z,5.06
2023-01-30T07:35:09.335Z,5.08
2023-01-30T07:38:13.312Z,5.16
2023-01-30T07:41:15.911Z,5.06
2023-01-30T07:44:18.476Z,5.08
2023-01-30T07:47:21.059Z,5.07
2023-01-30T07:50:23.810Z,5.22
2023-01-30T07:53:27.766Z,5.09
2023-01-30T07:56:31.232Z,5.33
2023-01-30T07:59:33.806Z,5.31
2023-01-30T08:02:36.403Z,5.29
2023-01-30T08:05:39.030Z,5.32
2023-01-30T08:08:43.910Z,5.45
2023-01-30T08:11:46.505Z,5.42
2023-01-30T08:14:49.095Z,5.39
2023-01-30T08:17:56.183Z,5.45
2023-01-30T08:20:59.023Z,5.55
2023-01-30T08:24:02.999Z,5.61
2023-01-30T08:27:05.596Z,5.58
2023-01-30T08:30:09.902Z,5.59
2023-01-30T08:33:12.490Z,5.52
2023-01-30T08:36:15.190Z,5.51
2023-01-30T08:39:19.473Z,5.51
2023-01-30T08:42:22.090Z,5.46
2023-01-30T08:45:24.671Z,5.49
2023-01-30T08:48:29.890Z,5.60
2023-01-30T08:51:34.701Z,5.70
2023-01-30T08:54:38.647Z,5.79
2023-01-30T08:57:41.309Z,5.75
2023-01-30T09:00:45.011Z,5.67
2023-01-30T09:03:48.920Z,5.72
2023-01-30T09:06:51.546Z,5.71
2023-01-30T09:09:55.467Z,5.65
2023-01-30T09:12:58.307Z,5.77
2023-01-30T09:16:00.971Z,5.74
2023-01-30T09:19:03.562Z,5.89
2023-01-30T09:22:07.279Z,5.99
2023-01-30T09:25:11.438Z,5.92
2023-01-30T09:28:14.563Z,5.94
2023-01-30T09:31:17.301Z,5.94
2023-01-30T09:34:20.260Z,5.95
2023-01-30T09:37:23.078Z,5.75
2023-01-30T09:40:29.732Z,5.74
2023-01-30T09:43:48.590Z,5.67
2023-01-30T09:47:04.740Z,5.58
2023-01-30T09:50:24.794Z,5.70
2023-01-30T09:53:35.999Z,5.57
2023-01-30T09:56:39.977Z,5.83
2023-01-30T09:59:53.733Z,5.84
2023-01-30T10:03:04.746Z,5.98
2023-01-30T10:06:12.025Z,6.23
2023-01-30T10:09:25.427Z,6.29
2023-01-30T10:12:45.112Z,6.22
2023-01-30T10:15:56.218Z,6.12
2023-01-30T10:19:23.375Z,6.09
2023-01-30T10:22:46.434Z,5.83
2023-01-30T10:25:51.846Z,5.58
2023-01-30T10:29:08.550Z,5.67
2023-01-30T10:32:16.303Z,5.41
2023-01-30T10:35:23.292Z,5.42
2023-01-30T10:38:32.350Z,5.32
2023-01-30T10:41:39.272Z,5.40
2023-01-30T10:44:43.633Z,5.28
2023-01-30T10:47:56.178Z,4.85
2023-01-30T10:51:01.010Z,4.97
2023-01-30T10:54:13.235Z,5.14
2023-01-30T10:57:25.295Z,5.14
2023-01-30T11:00:33.558Z,5.15
2023-01-30T11:03:42.367Z,5.26
2023-01-30T11:06:45.168Z,5.38
2023-01-30T11:09:49.652Z,5.23
2023-01-30T11:12:56.638Z,5.29
2023-01-30T11:16:07.784Z,5.04
2023-01-30T11:19:21.227Z,4.90
2023-01-30T11:22:26.967Z,4.92
2023-01-30T11:25:29.792Z,4.92
2023-01-30T11:28:40.583Z,4.84
2023-01-30T11:31:50.933Z,4.90
2023-01-30T11:35:05.233Z,4.86
2023-01-30T11:38:23.096Z,5.03
2023-01-30T11:41:25.728Z,4.97
2023-01-30T11:44:29.730Z,4.70
2023-01-30T11:47:33.720Z,4.72
2023-01-30T11:50:46.563Z,4.77
2023-01-30T11:53:58.344Z,4.79
2023-01-30T12:08:40.499Z,5.61
2023-01-30T12:26:37.136Z,5.97
2023-01-30T12:29:49.967Z,5.80
2023-01-30T12:32:57.602Z,5.57
2023-01-30T12:36:10.706Z,5.52
2023-01-30T12:39:23.404Z,5.36
2023-01-30T12:42:58.341Z,5.16
2023-01-30T12:46:11.438Z,5.23
2023-01-30T12:49:32.172Z,5.16
2023-01-30T12:52:57.461Z,5.39
2023-01-30T12:56:23.203Z,5.18
2023-01-30T12:59:35.700Z,5.08
2023-01-30T13:02:49.798Z,5.14
2023-01-30T13:05:57.980Z,5.30
2023-01-30T13:09:15.646Z,5.34
2023-01-30T13:12:24.682Z,5.77
2023-01-30T13:15:36.636Z,6.17
2023-01-30T13:18:44.241Z,5.87
2023-01-30T13:21:55.156Z,6.46
2023-01-30T13:25:07.818Z,6.49
2023-01-30T13:28:14.588Z,6.20
2023-01-30T13:31:22.339Z,6.14
2023-01-30T13:34:29.030Z,5.98
2023-01-30T13:37:33.078Z,5.93
2023-01-30T13:40:40.267Z,6.13
2023-01-30T13:43:47.795Z,6.09
2023-01-30T13:46:54.500Z,6.08
2023-01-30T13:50:11.111Z,6.06
2023-01-30T13:53:20.361Z,6.01
2023-01-30T13:56:41.509Z,5.89
2023-01-30T14:00:09.375Z,5.81
2023-01-30T14:03:31.569Z,5.49
2023-01-30T14:06:37.603Z,5.41
2023-01-30T14:09:43.707Z,5.26
2023-01-30T14:12:48.634Z,5.43
2023-01-30T14:15:56.438Z,5.45
2023-01-30T14:19:00.495Z,5.33
2023-01-30T14:22:17.600Z,5.53
2023-01-30T14:25:48.654Z,5.67
2023-01-30T14:28:55.415Z,5.72
2023-01-30T14:31:58.241Z,5.76
2023-01-30T14:35:21.568Z,5.88
2023-01-30T14:38:24.220Z,6.02
2023-01-30T14:41:28.577Z,5.96
2023-01-30T14:45:00.325Z,6.03
2023-01-30T14:48:28.645Z,6.04
2023-01-30T14:51:36.637Z,6.11
2023-01-30T14:54:48.843Z,6.06
2023-01-30T14:57:56.899Z,6.06
2023-01-30T15:01:00.702Z,6.14
2023-01-30T15:04:05.567Z,6.24
2023-01-30T15:07:14.023Z,6.24
2023-01-30T15:10:32.497Z,6.34
2023-01-30T15:13:45.347Z,6.28
2023-01-30T15:17:05.607Z,6.33
2023-01-30T15:20:21.698Z,6.40
2023-01-30T15:23:53.935Z,6.30
2023-01-30T15:27:07.960Z,6.25
2023-01-30T15:30:20.262Z,6.23
2023-01-30T15:33:30.966Z,6.27
2023-01-30T15:36:38.722Z,6.28
2023-01-30T15:39:42.673Z,6.30
2023-01-30T15:42:45.727Z,6.30
2023-01-30T15:46:04.933Z,6.23
2023-01-30T15:49:27.103Z,6.14
2023-01-30T15:52:40.045Z,6.20
2023-01-30T15:55:45.115Z,6.21
2023-01-30T15:58:48.162Z,6.22
2023-01-30T16:02:00.221Z,6.19
2023-01-30T16:05:13.946Z,6.13
2023-01-30T16:08:22.023Z,6.07
2023-01-30T16:11:40.431Z,6.08
2023-01-30T16:14:43.063Z,6.14
2023-01-30T16:17:54.232Z,6.15
2023-01-30T16:21:02.461Z,6.05
2023-01-30T16:24:07.259Z,6.15
2023-01-30T16:27:20.937Z,6.15
2023-01-30T16:30:26.886Z,6.14
2023-01-30T16:33:35.979Z,6.02
2023-01-30T16:36:43.305Z,6.11
2023-01-30T16:39:48.029Z,6.08
2023-01-30T16:42:59.794Z,6.18
2023-01-30T16:46:46.916Z,6.06
2023-01-30T16:49:50.815Z,6.00
2023-01-30T16:52:55.720Z,5.99
2023-01-30T16:56:01.573Z,6.00
2023-01-30T16:59:05.576Z,6.08
2023-01-30T17:02:08.563Z,6.19
2023-01-30T17:05:19.485Z,6.10
2023-01-30T17:08:48.547Z,6.18
2023-01-30T17:15:32.229Z,6.02
2023-01-30T17:18:34.820Z,5.98
2023-01-30T17:21:48.811Z,5.91
2023-01-30T17:24:51.601Z,5.85
2023-01-30T17:27:54.213Z,5.94
2023-01-30T17:30:58.240Z,5.87
2023-01-30T17:34:00.889Z,5.85
2023-01-30T17:37:03.437Z,5.97
2023-01-30T17:40:17.399Z,5.87
2023-01-30T17:43:20.098Z,5.83
2023-01-30T17:46:33.097Z,5.95
2023-01-30T17:49:35.680Z,5.86
2023-01-30T17:52:38.263Z,5.92
2023-01-30T17:55:40.853Z,5.89
2023-01-30T17:58:43.414Z,5.97
2023-01-30T18:01:48.973Z,5.98
2023-01-30T18:04:51.703Z,5.80
2023-01-30T18:07:54.279Z,5.86
2023-01-30T18:10:56.862Z,5.82
2023-01-30T18:13:59.645Z,5.79
2023-01-30T18:17:03.985Z,5.89
2023-01-30T18:20:07.453Z,5.87
2023-01-30T18:23:10.133Z,5.70
2023-01-30T18:26:13.648Z,5.61
2023-01-30T18:29:16.466Z,5.65
2023-01-30T18:32:20.395Z,5.71
2023-01-30T18:35:23.722Z,5.57
2023-01-30T18:38:27.935Z,5.52
2023-01-30T18:41:31.167Z,5.57
2023-01-30T18:44:33.730Z,5.54
2023-01-30T18:47:37.683Z,5.39
2023-01-30T18:50:40.351Z,5.34
2023-01-30T18:53:43.907Z,5.39
2023-01-30T18:56:46.545Z,5.38
2023-01-30T19:13:15.359Z,5.41
2023-01-30T19:16:19.050Z,5.30
2023-01-30T19:19:21.986Z,5.09
2023-01-30T19:22:24.928Z,5.37
2023-01-30T19:25:27.576Z,5.22
2023-01-30T19:28:32.627Z,5.27
2023-01-30T19:31:35.404Z,5.23
2023-01-30T19:34:38.425Z,5.25
2023-01-30T19:37:41.129Z,5.16
2023-01-30T19:40:45.065Z,5.16
2023-01-30T19:43:49.190Z,5.04
2023-01-30T19:46:51.824Z,5.18
2023-01-30T19:49:55.802Z,5.33
2023-01-30T19:52:58.429Z,5.03
2023-01-30T19:56:01.820Z,5.03
2023-01-30T19:59:06.919Z,4.94
2023-01-30T20:02:10.935Z,5.08
2023-01-30T20:05:13.544Z,4.99
2023-01-30T20:08:30.524Z,4.97
2023-01-30T20:11:35.881Z,4.90
2023-01-30T20:14:39.804Z,4.94
2023-01-30T20:17:42.417Z,4.93
2023-01-30T20:20:45.002Z,5.06
2023-01-30T20:23:48.586Z,4.75
2023-01-30T20:26:51.254Z,4.86
2023-01-30T20:29:55.244Z,4.82
2023-01-30T20:32:57.849Z,4.82
2023-01-30T20:36:02.095Z,4.79
2023-01-30T20:39:06.422Z,4.70
2023-01-30T20:42:09.354Z,4.68
2023-01-30T20:45:13.348Z,4.69
2023-01-30T20:48:15.932Z,4.70
2023-01-30T20:51:20.601Z,4.67
2023-01-30T20:54:24.305Z,4.73
2023-01-30T20:57:27.295Z,4.62
2023-01-30T21:00:31.245Z,4.60
2023-01-30T21:03:33.851Z,4.71
2023-01-30T21:06:43.598Z,4.79
2023-01-30T21:09:47.969Z,4.87
2023-01-30T21:12:50.560Z,4.94
2023-01-30T21:16:03.044Z,4.95
2023-01-30T21:19:07.736Z,4.95
2023-01-30T21:22:10.916Z,5.09
2023-01-30T21:25:13.538Z,5.08
2023-01-30T21:28:16.106Z,5.13
2023-01-30T21:31:22.750Z,4.80
2023-01-30T21:34:26.240Z,4.76
2023-01-30T21:37:46.621Z,4.75
2023-01-30T21:41:10.279Z,4.87
2023-01-30T21:44:13.931Z,4.75
2023-01-30T21:47:17.952Z,4.76
2023-01-30T21:50:20.914Z,4.75
2023-01-30T21:53:23.496Z,4.60
2023-01-30T21:56:26.281Z,4.55
2023-01-30T21:59:29.082Z,4.57
2023-01-30T22:02:33.071Z,4.62
2023-01-30T22:05:36.514Z,4.66
2023-01-30T22:08:40.313Z,4.45
2023-01-30T22:11:43.239Z,4.43
2023-01-30T22:14:45.837Z,4.52
2023-01-30T22:17:50.264Z,4.58
2023-01-30T22:20:52.970Z,4.61
2023-01-30T22:23:56.807Z,4.70
2023-01-30T22:26:59.449Z,4.73
2023-01-30T22:30:02.063Z,4.63
2023-01-30T22:33:06.095Z,4.68
2023-01-30T22:36:09.124Z,4.67
2023-01-30T22:39:11.990Z,4.59
2023-01-30T22:42:14.540Z,4.73
2023-01-30T22:45:17.630Z,4.67
2023-01-30T22:48:21.807Z,4.58
2023-01-30T22:51:25.854Z,4.71
2023-01-30T22:54:28.723Z,4.77
2023-01-30T22:57:31.319Z,4.87
2023-01-30T23:00:33.881Z,4.74
2023-01-30T23:03:38.148Z,4.51
2023-01-30T23:06:41.969Z,4.62
2023-01-30T23:09:44.596Z,4.48
2023-01-30T23:13:04.876Z,4.61
2023-01-30T23:16:07.533Z,4.61
2023-01-30T23:19:12.553Z,4.55
2023-01-30T23:22:15.153Z,4.46
2023-01-30T23:25:18.238Z,4.50
2023-01-30T23:28:21.097Z,4.42
2023-01-30T23:31:26.216Z,4.24
2023-01-30T23:34:30.192Z,4.34
2023-01-30T23:37:46.747Z,4.35
2023-01-30T23:40:50.100Z,4.43
2023-01-30T23:43:53.464Z,4.22
2023-01-30T23:46:56.043Z,4.29
2023-01-30T23:50:00.005Z,4.36
2023-01-30T23:53:02.621Z,4.41
2023-01-30T23:56:06.669Z,4.34
2023-01-30T23:59:09.615Z,4.36
